createdAt,value
2023-01-12T01:03:57.547Z,8.20
2023-01-12T01:06:45.004Z,8.40
2023-01-12T01:09:32.436Z,12.30
2023-01-12T01:12:19.831Z,9.90
2023-01-12T01:15:07.871Z,7.40
2023-01-12T01:17:55.289Z,7.40
2023-01-12T01:20:47.016Z,6.10
2023-01-12T01:23:35.310Z,7.50
2023-01-12T01:26:23.269Z,6.30
2023-01-12T01:29:10.864Z,6.50
2023-01-12T01:31:58.275Z,5.80
2023-01-12T01:34:47.119Z,5.70
2023-01-12T01:37:34.553Z,6.60
2023-01-12T01:40:22.005Z,7.20
2023-01-12T01:43:14.011Z,6.80
2023-01-12T01:46:09.759Z,7.90
2023-01-12T01:48:58.066Z,6.70
2023-01-12T01:51:45.743Z,7.10
2023-01-12T01:54:36.400Z,7.10
2023-01-12T01:57:24.806Z,6.40
2023-01-12T02:00:12.593Z,6.70
2023-01-12T02:03:00.033Z,5.20
2023-01-12T02:05:48.578Z,7.40
2023-01-12T02:08:49.414Z,7.60
2023-01-12T02:11:55.579Z,6.20
2023-01-12T02:15:02.248Z,6.00
2023-01-12T02:18:11.590Z,5.90
2023-01-12T02:21:05.081Z,6.90
2023-01-12T02:24:07.231Z,6.40
2023-01-12T02:27:13.502Z,6.30
2023-01-12T02:30:38.933Z,4.20
2023-01-12T02:33:41.603Z,5.60
2023-01-12T02:36:37.719Z,4.60
2023-01-12T02:39:30.171Z,5.30
2023-01-12T02:42:49.611Z,4.40
2023-01-12T02:45:43.026Z,5.60
2023-01-12T02:48:34.950Z,8.30
2023-01-12T02:51:32.154Z,7.60
2023-01-12T02:54:20.325Z,7.80
2023-01-12T02:57:08.314Z,8.10
2023-01-12T02:59:55.787Z,9.40
2023-01-12T03:02:43.284Z,8.10
2023-01-12T03:05:30.748Z,9.30
2023-01-12T03:08:21.183Z,7.30
2023-01-12T03:11:15.886Z,8.10
2023-01-12T03:14:03.319Z,7.10
2023-01-12T03:16:50.771Z,6.80
2023-01-12T03:19:38.179Z,8.20
2023-01-12T03:22:25.624Z,4.80
2023-01-12T03:25:14.161Z,4.30
2023-01-12T03:28:03.153Z,4.50
2023-01-12T03:31:11.108Z,6.80
2023-01-12T03:33:58.692Z,3.50
2023-01-12T03:36:48.956Z,2.80
2023-01-12T03:39:50.798Z,4.30
2023-01-12T03:43:15.694Z,3.70
2023-01-12T03:46:08.483Z,2.50
2023-01-12T03:49:03.070Z,3.60
2023-01-12T03:51:50.549Z,3.10
2023-01-12T03:54:38.435Z,2.50
2023-01-12T03:57:26.160Z,3.20
2023-01-12T07:05:09.847Z,9.90
2023-01-12T07:07:59.393Z,12.70
2023-01-12T07:10:46.888Z,11.80
2023-01-12T07:13:34.419Z,9.80
2023-01-12T07:16:21.927Z,7.10
2023-01-12T07:19:09.489Z,9.50
2023-01-12T07:21:56.902Z,10.00
2023-01-12T07:24:44.286Z,6.30
2023-01-12T07:27:31.763Z,5.60
2023-01-12T07:30:21.355Z,6.70
2023-01-12T07:33:10.191Z,7.10
2023-01-12T07:35:59.186Z,6.10
2023-01-12T07:38:46.901Z,4.90
2023-01-12T07:41:54.184Z,6.60
2023-01-12T07:44:43.519Z,6.20
2023-01-12T07:47:30.996Z,7.80
2023-01-12T07:50:18.443Z,6.80
2023-01-12T07:53:05.879Z,6.50
2023-01-12T07:55:53.346Z,6.40
2023-01-12T07:58:40.831Z,6.50
2023-01-12T08:01:28.386Z,7.80
2023-01-12T08:04:16.023Z,7.70
2023-01-12T08:07:03.602Z,7.70
2023-01-12T08:09:51.075Z,8.20
2023-01-12T08:12:38.749Z,10.40
2023-01-12T08:15:26.195Z,9.20
2023-01-12T08:18:18.783Z,8.70
2023-01-12T08:21:10.052Z,10.10
2023-01-12T08:23:58.940Z,9.80
2023-01-12T08:26:46.740Z,16.30
2023-01-12T08:29:40.161Z,12.40
2023-01-12T08:32:28.178Z,8.10
2023-01-12T08:35:18.165Z,14.90
2023-01-12T08:38:05.615Z,8.70
2023-01-12T08:41:11.672Z,8.70
2023-01-12T08:44:09.175Z,10.50
2023-01-12T08:46:56.682Z,6.70
2023-01-12T08:49:45.892Z,7.60
2023-01-12T08:52:33.342Z,5.70
2023-01-12T08:55:20.803Z,5.10
2023-01-12T08:58:08.222Z,5.30
2023-01-12T09:00:55.883Z,5.60
2023-01-12T09:03:44.497Z,6.20
2023-01-12T09:06:35.275Z,5.30
2023-01-12T09:09:22.902Z,4.90
2023-01-12T09:12:10.401Z,6.70
2023-01-12T09:14:57.864Z,5.50
2023-01-12T09:17:45.378Z,6.50
2023-01-12T09:20:34.212Z,7.30
2023-01-12T09:23:21.679Z,7.00
2023-01-12T09:26:14.315Z,6.40
2023-01-12T09:29:02.567Z,8.80
2023-01-12T09:31:50.086Z,5.40
2023-01-12T09:34:37.799Z,8.20
2023-01-12T09:37:26.100Z,7.50
2023-01-12T09:40:14.616Z,6.90
2023-01-12T09:43:20.621Z,7.50
2023-01-12T09:46:56.680Z,7.10
2023-01-12T09:49:46.362Z,6.20
2023-01-12T09:52:36.872Z,7.90
2023-01-12T09:55:26.015Z,6.30
2023-01-12T13:07:42.705Z,10.00
2023-01-12T13:10:30.216Z,10.50
2023-01-12T13:13:37.353Z,10.10
2023-01-12T13:16:45.829Z,9.10
2023-01-12T13:19:36.206Z,8.70
2023-01-12T13:22:29.836Z,9.70
2023-01-12T13:25:17.327Z,8.80
2023-01-12T13:28:04.731Z,7.60
2023-01-12T13:30:53.284Z,8.30
2023-01-12T13:33:40.722Z,9.60
2023-01-12T13:36:31.537Z,8.80
2023-01-12T13:39:18.990Z,10.10
2023-01-12T13:42:38.745Z,8.60
2023-01-12T13:45:26.183Z,9.90
2023-01-12T13:48:13.564Z,8.30
2023-01-12T13:51:07.563Z,7.90
2023-01-12T13:53:59.459Z,9.00
2023-01-12T13:56:56.347Z,6.80
2023-01-12T14:00:09.105Z,9.00
2023-01-12T14:03:03.191Z,8.90
2023-01-12T14:06:02.113Z,9.30
2023-01-12T14:08:52.575Z,8.90
2023-01-12T14:12:17.525Z,9.80
2023-01-12T14:15:56.606Z,9.80
2023-01-12T14:18:45.678Z,9.60
2023-01-12T14:21:38.096Z,11.30
2023-01-12T14:24:25.667Z,11.10
2023-01-12T14:27:23.333Z,10.90
2023-01-12T14:30:13.874Z,9.90
2023-01-12T14:33:01.521Z,14.40
2023-01-12T14:35:50.427Z,16.60
2023-01-12T14:38:40.492Z,20.80
2023-01-12T14:41:55.317Z,21.60
2023-01-12T14:45:11.902Z,15.40
2023-01-12T14:48:25.898Z,35.10
2023-01-12T14:51:23.946Z,15.10
2023-01-12T14:54:11.331Z,14.10
2023-01-12T14:57:03.859Z,14.30
2023-01-12T14:59:51.420Z,15.60
2023-01-12T15:02:40.288Z,14.80
2023-01-12T15:05:29.091Z,12.40
2023-01-12T15:08:31.187Z,12.10
2023-01-12T15:11:28.806Z,25.30
2023-01-12T15:14:27.601Z,18.50
2023-01-12T15:17:33.651Z,15.70
2023-01-12T15:20:39.713Z,18.50
2023-01-12T15:23:47.805Z,18.30
2023-01-12T15:26:35.263Z,10.60
2023-01-12T15:29:22.760Z,10.30
2023-01-12T15:32:46.182Z,11.30
2023-01-12T15:35:44.452Z,23.80
2023-01-12T15:38:31.890Z,21.00
2023-01-12T15:41:44.233Z,17.00
2023-01-12T15:44:31.674Z,18.10
2023-01-12T15:47:19.580Z,15.10
2023-01-12T15:50:07.555Z,12.30
2023-01-12T15:52:56.631Z,28.20
2023-01-12T15:55:44.081Z,42.50
2023-01-12T15:58:31.758Z,30.10
2023-01-12T19:05:34.803Z,14.80
2023-01-12T19:08:40.905Z,20.00
2023-01-12T19:11:28.323Z,23.20
2023-01-12T19:14:34.352Z,21.80
2023-01-12T19:17:27.837Z,17.40
2023-01-12T19:20:16.139Z,16.60
2023-01-12T19:23:22.393Z,15.70
2023-01-12T19:26:28.937Z,18.40
2023-01-12T19:29:16.545Z,21.20
2023-01-12T19:32:04.282Z,18.30
2023-01-12T19:34:56.275Z,15.50
2023-01-12T19:37:48.032Z,15.30
2023-01-12T19:40:59.184Z,13.70
2023-01-12T19:43:46.869Z,13.10
2023-01-12T19:46:35.084Z,13.50
2023-01-12T19:49:22.704Z,13.50
2023-01-12T19:52:10.902Z,11.90
2023-01-12T19:54:58.362Z,8.90
2023-01-12T19:57:45.905Z,10.40
2023-01-12T20:00:36.016Z,11.30
2023-01-12T20:03:24.013Z,10.40
2023-01-12T20:06:11.459Z,10.60
2023-01-12T20:08:59.111Z,11.10
2023-01-12T20:11:52.655Z,9.20
2023-01-12T20:14:40.115Z,9.60
2023-01-12T20:17:27.736Z,10.00
2023-01-12T20:20:15.598Z,10.40
2023-01-12T20:23:03.103Z,10.20
2023-01-12T20:25:50.728Z,10.90
2023-01-12T20:28:38.359Z,9.80
2023-01-12T20:31:25.995Z,10.80
2023-01-12T20:34:14.044Z,11.20
2023-01-12T20:37:03.125Z,12.60
2023-01-12T20:39:53.350Z,11.70
2023-01-12T20:42:41.442Z,11.30
2023-01-12T20:45:29.030Z,9.40
2023-01-12T20:48:16.486Z,11.90
2023-01-12T20:51:07.530Z,11.50
2023-01-12T20:53:55.629Z,10.50
2023-01-12T20:56:43.082Z,11.10
2023-01-12T20:59:30.644Z,9.40
2023-01-12T21:02:23.459Z,10.70
2023-01-12T21:05:10.868Z,11.40
2023-01-12T21:08:07.373Z,14.40
2023-01-12T21:10:55.652Z,12.40
2023-01-12T21:13:43.247Z,12.70
2023-01-12T21:16:31.463Z,11.50
2023-01-12T21:19:19.174Z,10.10
2023-01-12T21:22:06.658Z,9.90
2023-01-12T21:24:54.023Z,9.90
2023-01-12T21:27:41.643Z,11.00
2023-01-12T21:30:29.138Z,10.80
2023-01-12T21:33:17.762Z,10.50
2023-01-12T21:36:05.569Z,9.90
2023-01-12T21:38:53.372Z,8.60
2023-01-12T21:41:59.379Z,10.40
2023-01-12T21:44:46.794Z,7.90
2023-01-12T21:47:34.275Z,7.10
2023-01-12T21:50:22.316Z,6.30
2023-01-12T21:53:13.382Z,4.90
2023-01-12T21:56:02.203Z,6.20
